This is the latest recevied weather packets stored in our database for station/object HARMAJA. If no packets are shown the sender has not sent any weather packets the latest 10 day(s).
| Time | Temp. | Humidity | Pressure | Rain* | Wind** | Luminosity | Snow |
|---|---|---|---|---|---|---|---|
| 1788368677 | 16.67° C | 92% | 1007.9 hPa | - | - | - | - |
| 1788366276 | 16.67° C | 89% | 1007.8 hPa | - | - | - | - |
| 1788365075 | 16.67° C | 87% | 1007.9 hPa | - | - | - | - |
| 1788363876 | 16.67° C | 87% | 1007.9 hPa | - | - | - | - |
| 1788362675 | 16.67° C | 87% | 1008.1 hPa | - | - | - | - |
| 1788361476 | 16.67° C | 86% | 1008.1 hPa | - | - | - | - |
| 1788359075 | 17.22° C | 83% | 1008.1 hPa | - | - | - | - |
| 1788355474 | 17.22° C | 75% | 1008 hPa | - | - | - | - |
| 1788354275 | 17.22° C | 80% | 1008.1 hPa | - | - | - | - |
| 1788351873 | 17.22° C | 79% | 1008.1 hPa | - | - | - | - |
| 1788350674 | 17.22° C | 78% | 1008.2 hPa | - | - | - | - |
| 1788349474 | 16.67° C | 77% | 1008.3 hPa | - | - | - | - |
| 1788348275 | 16.11° C | 77% | 1008.3 hPa | - | - | - | - |
| 1788347075 | 16.67° C | 75% | 1008.3 hPa | - | - | - | - |
| 1788345874 | 17.22° C | 68% | 1008.4 hPa | - | - | - | - |
| 1788344673 | 17.22° C | 69% | 1008.4 hPa | - | - | - | - |
| 1788343473 | 17.22° C | 68% | 1008.3 hPa | - | - | - | - |
| 1788342274 | 16.11° C | 72% | 1008.4 hPa | - | - | - | - |
| 1788341073 | 15.56° C | 74% | 1008.4 hPa | - | - | - | - |
| 1788339875 | 15° C | 77% | 1008.5 hPa | - | - | - | - |
| 1788336273 | 13.89° C | 84% | 1008.2 hPa | - | - | - | - |
| 1788335074 | 13.33° C | 85% | 1008.2 hPa | - | - | - | - |
| 1788333872 | 13.33° C | 86% | 1008.1 hPa | - | - | - | - |
| 1788332673 | 13.33° C | 86% | 1007.9 hPa | - | - | - | - |
| 1788331472 | 13.89° C | 86% | 1007.8 hPa | - | - | - | - |
* Rain since midnight (hover to see other rain measurements)
** Current wind speed in m/s (hover to see current wind gust speed)